createdAt,value
2022-09-24T00:01:38.454Z,5.37
2022-09-24T00:04:07.945Z,5.70
2022-09-24T00:06:38.955Z,5.63
2022-09-24T00:09:05.869Z,6.20
2022-09-24T00:11:32.990Z,6.03
2022-09-24T00:14:00.208Z,6.67
2022-09-24T00:16:31.367Z,5.50
2022-09-24T00:18:59.059Z,5.80
2022-09-24T00:21:28.939Z,6.10
2022-09-24T00:24:00.960Z,6.37
2022-09-24T00:26:46.850Z,5.60
2022-09-24T00:29:17.061Z,5.30
2022-09-24T00:31:44.215Z,5.67
2022-09-24T00:34:10.996Z,5.87
2022-09-24T00:36:38.072Z,5.80
2022-09-24T00:39:05.857Z,5.10
2022-09-24T00:41:36.058Z,5.60
2022-09-24T00:44:40.822Z,5.13
2022-09-24T00:47:27.323Z,5.50
2022-09-24T00:50:08.097Z,5.67
2022-09-24T00:52:40.617Z,5.80
2022-09-24T00:55:08.692Z,5.77
2022-09-24T00:57:36.719Z,5.83
2022-09-24T01:00:05.403Z,5.40
2022-09-24T01:02:32.878Z,5.53
2022-09-24T01:05:00.276Z,5.83
2022-09-24T01:07:27.397Z,5.80
2022-09-24T01:09:54.131Z,5.57
2022-09-24T01:12:21.195Z,5.60
2022-09-24T01:15:06.909Z,6.10
2022-09-24T01:17:56.953Z,5.80
2022-09-24T01:20:41.868Z,5.97
2022-09-24T01:23:48.522Z,6.03
2022-09-24T01:26:32.317Z,6.10
2022-09-24T01:29:06.919Z,5.90
2022-09-24T01:31:50.613Z,6.70
2022-09-24T01:34:22.506Z,5.50
2022-09-24T01:36:50.635Z,6.20
2022-09-24T01:39:18.533Z,6.33
2022-09-24T01:41:45.781Z,5.70
2022-09-24T01:44:12.985Z,5.57
2022-09-24T01:46:42.337Z,6.30
2022-09-24T01:49:09.634Z,5.90
2022-09-24T01:51:45.243Z,5.80
2022-09-24T01:54:50.202Z,6.20
2022-09-24T01:57:36.068Z,5.63
2022-09-24T02:00:21.229Z,5.60
2022-09-24T02:03:08.883Z,6.10
2022-09-24T02:05:48.072Z,6.27
2022-09-24T02:08:22.244Z,5.80
2022-09-24T02:11:08.396Z,5.90
2022-09-24T02:13:55.067Z,6.07
2022-09-24T02:16:26.478Z,5.77
2022-09-24T02:18:56.983Z,6.20
2022-09-24T02:21:25.658Z,6.30
2022-09-24T02:23:57.195Z,6.37
2022-09-24T02:26:24.392Z,5.93
2022-09-24T02:28:51.861Z,5.63
2022-09-24T02:31:24.592Z,6.00
2022-09-24T02:34:10.770Z,6.10
2022-09-24T02:36:39.043Z,5.73
2022-09-24T02:39:05.823Z,5.93
2022-09-24T02:41:33.904Z,6.03
2022-09-24T02:44:00.772Z,5.60
2022-09-24T02:46:27.937Z,5.90
2022-09-24T02:48:54.784Z,5.90
2022-09-24T02:51:21.993Z,6.10
2022-09-24T02:53:49.025Z,5.90
2022-09-24T02:56:16.113Z,5.93
2022-09-24T02:58:43.181Z,6.63
2022-09-24T03:01:10.259Z,5.73
2022-09-24T03:03:37.012Z,5.13
2022-09-24T03:06:03.729Z,5.50
2022-09-24T03:08:31.214Z,6.10
2022-09-24T03:10:57.937Z,5.47
2022-09-24T03:13:24.995Z,5.50
2022-09-24T03:15:52.168Z,5.30
2022-09-24T03:18:19.271Z,6.27
2022-09-24T03:21:04.895Z,5.67
2022-09-24T03:23:31.774Z,5.57
2022-09-24T03:25:59.084Z,6.27
2022-09-24T03:28:26.440Z,6.23
2022-09-24T03:30:59.971Z,5.87
2022-09-24T03:33:43.738Z,5.67
2022-09-24T03:36:17.757Z,6.00
2022-09-24T03:38:45.889Z,5.67
2022-09-24T03:41:13.508Z,5.87
2022-09-24T03:43:40.757Z,5.70
2022-09-24T03:46:08.998Z,5.60
2022-09-24T03:48:37.306Z,6.90
2022-09-24T03:51:15.831Z,6.60
2022-09-24T03:53:42.790Z,5.90
2022-09-24T03:56:09.629Z,5.67
2022-09-24T03:58:39.050Z,5.53
2022-09-24T04:01:10.616Z,5.47
2022-09-24T04:03:37.754Z,6.17
2022-09-24T04:06:05.372Z,5.20
2022-09-24T04:08:32.565Z,6.10
2022-09-24T04:10:59.624Z,6.40
2022-09-24T04:13:26.885Z,5.50
2022-09-24T04:15:54.912Z,5.70
2022-09-24T04:18:22.363Z,5.90
2022-09-24T04:20:49.479Z,5.73
2022-09-24T04:23:16.256Z,6.13
2022-09-24T04:25:44.468Z,5.87
2022-09-24T04:28:11.950Z,6.27
2022-09-24T04:30:38.953Z,6.40
2022-09-24T04:33:06.325Z,5.73
2022-09-24T04:35:36.133Z,5.67
2022-09-24T04:38:04.249Z,5.50
2022-09-24T04:40:31.997Z,5.30
2022-09-24T04:42:59.075Z,5.50
2022-09-24T04:45:26.726Z,5.90
2022-09-24T04:47:57.473Z,6.03
2022-09-24T04:50:29.161Z,5.57
2022-09-24T04:52:56.838Z,5.90
2022-09-24T04:55:24.147Z,6.00
2022-09-24T04:57:51.076Z,5.63
2022-09-24T05:00:20.784Z,5.90
2022-09-24T05:02:48.188Z,5.50
2022-09-24T05:05:15.592Z,5.83
2022-09-24T05:07:44.557Z,5.60
2022-09-24T05:10:11.700Z,5.70
2022-09-24T05:12:40.823Z,5.30
2022-09-24T05:15:08.028Z,5.83
2022-09-24T05:17:39.022Z,6.13
2022-09-24T05:20:07.095Z,5.67
2022-09-24T05:22:33.887Z,6.17
2022-09-24T05:25:00.550Z,5.87
2022-09-24T05:27:27.188Z,5.73
2022-09-24T05:29:54.661Z,6.43
2022-09-24T05:32:21.374Z,5.97
2022-09-24T05:34:49.029Z,6.13
2022-09-24T05:37:15.940Z,5.90
2022-09-24T05:39:42.591Z,5.70
2022-09-24T05:42:15.607Z,6.30
2022-09-24T05:44:46.374Z,5.77
2022-09-24T05:47:16.351Z,5.90
2022-09-24T05:49:42.970Z,6.50
2022-09-24T05:52:09.996Z,5.90
2022-09-24T05:54:37.097Z,6.10
2022-09-24T05:57:03.861Z,5.77
2022-09-24T05:59:30.525Z,6.10
2022-09-24T06:01:57.649Z,6.10
2022-09-24T06:04:24.773Z,6.27
2022-09-24T06:06:52.191Z,5.83
2022-09-24T06:09:18.863Z,6.13
2022-09-24T06:11:46.567Z,5.90
2022-09-24T06:14:13.219Z,5.57
2022-09-24T06:16:40.389Z,5.37
2022-09-24T06:19:07.135Z,5.60
2022-09-24T06:21:34.240Z,5.87
2022-09-24T06:24:01.093Z,6.20
2022-09-24T06:26:28.965Z,6.10
2022-09-24T06:28:58.470Z,5.77
2022-09-24T06:31:27.521Z,5.43
2022-09-24T06:34:08.938Z,5.97
2022-09-24T06:36:36.430Z,5.93
2022-09-24T06:39:04.222Z,5.83
2022-09-24T06:41:30.895Z,5.50
2022-09-24T06:43:57.646Z,6.73
2022-09-24T06:46:25.903Z,5.90
2022-09-24T06:48:56.218Z,5.97
2022-09-24T06:51:23.300Z,5.27
2022-09-24T06:53:53.024Z,5.97
2022-09-24T06:56:19.726Z,5.60
2022-09-24T06:58:46.640Z,5.73
2022-09-24T07:01:13.833Z,5.70
2022-09-24T07:03:40.748Z,5.70
2022-09-24T07:06:08.034Z,5.73
2022-09-24T07:08:35.216Z,5.60
2022-09-24T07:11:02.417Z,5.77
2022-09-24T07:13:29.216Z,6.03
2022-09-24T07:15:56.417Z,5.60
2022-09-24T07:18:23.295Z,5.40
2022-09-24T07:20:56.859Z,5.60
2022-09-24T07:23:23.733Z,5.80
2022-09-24T07:25:51.120Z,6.03
2022-09-24T07:28:18.944Z,6.10
2022-09-24T07:30:45.679Z,6.20
2022-09-24T07:33:12.403Z,5.37
2022-09-24T07:35:39.553Z,5.53
2022-09-24T07:38:12.371Z,5.83
2022-09-24T07:40:39.609Z,5.27
2022-09-24T07:43:13.667Z,5.70
2022-09-24T07:45:41.572Z,5.63
2022-09-24T07:48:10.542Z,5.00
2022-09-24T07:50:41.842Z,5.83
2022-09-24T07:53:12.887Z,5.73
2022-09-24T07:55:40.488Z,6.13
2022-09-24T07:58:10.996Z,5.30
2022-09-24T08:00:38.071Z,5.33
2022-09-24T08:03:05.530Z,5.40
2022-09-24T08:05:33.115Z,5.57
2022-09-24T08:08:00.281Z,5.67
2022-09-24T08:10:28.310Z,6.70
2022-09-24T08:12:56.937Z,5.47
2022-09-24T08:15:23.847Z,5.43
2022-09-24T08:17:51.317Z,5.87
2022-09-24T08:20:18.304Z,5.63
2022-09-24T08:22:45.169Z,5.30
2022-09-24T08:25:11.954Z,5.50
2022-09-24T08:27:39.281Z,5.67
2022-09-24T08:30:06.951Z,5.57
2022-09-24T08:32:33.967Z,6.17
2022-09-24T08:35:00.654Z,5.60
2022-09-24T08:37:28.783Z,5.33
2022-09-24T08:39:55.884Z,5.57
2022-09-24T08:42:35.740Z,5.87
2022-09-24T08:45:23.200Z,5.33
2022-09-24T08:47:57.184Z,6.23
2022-09-24T08:50:35.950Z,6.27
2022-09-24T08:53:32.397Z,6.10
2022-09-24T08:56:01.337Z,5.57
2022-09-24T08:58:49.515Z,6.43
2022-09-24T09:01:16.800Z,6.43
2022-09-24T09:03:53.915Z,6.57
2022-09-24T09:06:45.198Z,6.53
2022-09-24T09:09:17.582Z,7.43
2022-09-24T09:11:48.743Z,7.73
2022-09-24T09:14:29.265Z,8.30
2022-09-24T09:17:06.691Z,7.90
2022-09-24T09:19:34.630Z,7.77
2022-09-24T09:22:16.646Z,7.90
2022-09-24T09:24:52.359Z,7.90
2022-09-24T09:27:20.444Z,8.63
2022-09-24T09:29:57.475Z,7.83
2022-09-24T09:32:48.474Z,7.70
2022-09-24T09:35:29.730Z,8.27
2022-09-24T09:38:05.148Z,7.90
2022-09-24T09:40:37.800Z,7.57
2022-09-24T09:43:14.792Z,7.20
2022-09-24T09:46:05.377Z,7.80
2022-09-24T09:48:48.947Z,8.17
2022-09-24T09:51:23.330Z,8.60
2022-09-24T09:53:57.285Z,8.83
2022-09-24T09:56:30.660Z,8.20
2022-09-24T09:59:12.316Z,9.10
2022-09-24T10:01:41.324Z,8.20
2022-09-24T10:04:39.507Z,8.25
2022-09-24T10:07:10.593Z,7.90
2022-09-24T10:09:38.612Z,9.50
2022-09-24T10:12:09.272Z,11.43
2022-09-24T10:14:36.506Z,10.53
2022-09-24T10:17:05.744Z,10.97
2022-09-24T10:19:36.765Z,10.37
2022-09-24T10:22:18.601Z,10.00
2022-09-24T10:24:45.797Z,11.27
2022-09-24T10:27:14.655Z,10.60
2022-09-24T10:29:59.918Z,11.00
2022-09-24T10:32:29.668Z,10.00
2022-09-24T10:35:01.776Z,10.80
2022-09-24T10:37:29.800Z,11.87
2022-09-24T10:40:16.047Z,11.00
2022-09-24T10:42:43.270Z,11.17
2022-09-24T10:45:15.761Z,11.90
2022-09-24T10:47:57.508Z,11.70
2022-09-24T10:50:30.268Z,10.37
2022-09-24T10:53:19.211Z,11.80
2022-09-24T10:56:22.721Z,10.97
2022-09-24T10:59:04.384Z,12.07
2022-09-24T11:01:32.614Z,11.03
2022-09-24T11:04:30.514Z,11.50
2022-09-24T11:07:20.210Z,11.83
2022-09-24T11:09:55.179Z,11.83
2022-09-24T11:12:35.707Z,11.47
2022-09-24T11:15:24.135Z,11.93
2022-09-24T11:18:14.422Z,10.90
2022-09-24T11:20:53.799Z,12.03
2022-09-24T11:23:20.816Z,11.90
2022-09-24T11:25:47.852Z,12.10
2022-09-24T11:28:57.618Z,12.77
2022-09-24T11:32:06.804Z,12.07
2022-09-24T11:35:05.623Z,12.10
2022-09-24T11:37:39.327Z,11.63
2022-09-24T11:40:27.678Z,13.63
2022-09-24T11:43:25.363Z,12.20
2022-09-24T11:46:30.006Z,11.87
2022-09-24T11:49:33.236Z,11.13
2022-09-24T11:52:15.102Z,12.50
2022-09-24T11:54:47.779Z,12.33
2022-09-24T11:57:25.045Z,10.70
2022-09-24T11:59:54.721Z,11.07
2022-09-24T12:02:30.499Z,10.73
2022-09-24T12:05:15.472Z,10.50
2022-09-24T12:07:47.624Z,10.10
2022-09-24T12:10:34.548Z,10.37
2022-09-24T12:13:30.819Z,9.93
2022-09-24T12:15:57.602Z,9.53
2022-09-24T12:18:24.262Z,9.50
2022-09-24T12:20:56.937Z,8.90
2022-09-24T12:23:28.209Z,9.87
2022-09-24T12:25:57.417Z,8.80
2022-09-24T12:28:45.647Z,8.33
2022-09-24T12:32:03.319Z,8.60
2022-09-24T12:34:58.451Z,8.00
2022-09-24T12:37:33.386Z,7.73
2022-09-24T12:40:03.851Z,8.20
2022-09-24T12:42:37.084Z,7.37
2022-09-24T12:45:05.341Z,7.70
2022-09-24T12:47:37.482Z,8.63
2022-09-24T12:50:08.345Z,7.90
2022-09-24T12:52:42.881Z,8.13
2022-09-24T12:55:26.109Z,7.53
2022-09-24T12:58:07.308Z,8.40
2022-09-24T13:00:47.155Z,7.87
2022-09-24T13:03:34.192Z,8.37
2022-09-24T13:06:01.835Z,9.20
2022-09-24T13:08:40.259Z,8.13
2022-09-24T13:11:25.758Z,7.77
2022-09-24T13:14:13.768Z,7.97
2022-09-24T13:16:43.926Z,7.73
2022-09-24T13:19:44.433Z,8.30
2022-09-24T13:22:28.139Z,8.17
2022-09-24T13:25:10.363Z,7.90
2022-09-24T13:27:41.179Z,7.27
2022-09-24T13:30:22.912Z,7.90
2022-09-24T13:32:58.693Z,8.43
2022-09-24T13:35:30.247Z,8.53
2022-09-24T13:38:22.324Z,8.13
2022-09-24T13:40:56.676Z,8.60
2022-09-24T13:43:45.318Z,8.83
2022-09-24T13:46:16.635Z,8.17
2022-09-24T13:48:53.560Z,8.90
2022-09-24T13:51:26.467Z,9.40
2022-09-24T13:53:55.829Z,8.73
2022-09-24T13:56:23.307Z,8.47
2022-09-24T13:58:51.508Z,8.30
2022-09-24T14:01:30.054Z,8.33
2022-09-24T14:04:07.139Z,8.27
2022-09-24T14:06:44.603Z,8.73
2022-09-24T14:09:23.143Z,8.77
2022-09-24T14:11:52.134Z,8.53
2022-09-24T14:14:21.159Z,7.43
2022-09-24T14:16:47.844Z,8.57
2022-09-24T14:19:16.135Z,8.80
2022-09-24T14:21:56.769Z,8.03
2022-09-24T14:24:27.370Z,7.50
2022-09-24T14:27:11.711Z,7.53
2022-09-24T14:29:56.859Z,7.13
2022-09-24T14:32:32.248Z,7.40
2022-09-24T14:35:03.523Z,7.73
2022-09-24T14:37:37.159Z,8.87
2022-09-24T14:40:15.507Z,8.37
2022-09-24T14:42:49.054Z,8.00
2022-09-24T14:45:22.232Z,8.40
2022-09-24T14:48:00.041Z,8.60
2022-09-24T14:50:36.394Z,7.63
2022-09-24T14:53:22.023Z,8.50
2022-09-24T14:55:49.829Z,8.47
2022-09-24T14:58:33.645Z,7.10
2022-09-24T15:01:07.120Z,8.20
2022-09-24T15:03:33.703Z,7.77
2022-09-24T15:06:05.727Z,7.27
2022-09-24T15:08:32.846Z,7.33
2022-09-24T15:11:05.320Z,7.30
2022-09-24T15:13:35.848Z,7.60
2022-09-24T15:16:31.819Z,7.17
2022-09-24T15:19:19.511Z,7.07
2022-09-24T15:21:51.199Z,7.43
2022-09-24T15:24:19.870Z,6.53
2022-09-24T15:26:50.439Z,7.30
2022-09-24T15:29:24.159Z,6.53
2022-09-24T15:31:52.243Z,6.93
2022-09-24T15:34:20.504Z,7.07
2022-09-24T15:36:55.631Z,6.70
2022-09-24T15:39:23.335Z,6.90
2022-09-24T15:41:50.385Z,6.87
2022-09-24T15:44:25.344Z,7.30
2022-09-24T15:46:54.398Z,7.87
2022-09-24T15:49:22.825Z,7.70
2022-09-24T15:52:07.541Z,7.57
2022-09-24T15:54:34.623Z,7.67
2022-09-24T15:57:01.363Z,8.00
2022-09-24T15:59:28.673Z,8.00
2022-09-24T16:01:59.652Z,7.17
2022-09-24T16:04:26.782Z,7.47
2022-09-24T16:06:53.420Z,7.57
2022-09-24T16:09:24.175Z,7.30
2022-09-24T16:11:50.802Z,7.03
2022-09-24T16:14:17.906Z,7.47
2022-09-24T16:16:44.539Z,6.87
2022-09-24T16:19:12.501Z,6.70
2022-09-24T16:21:39.722Z,6.60
2022-09-24T16:24:06.919Z,6.73
2022-09-24T16:26:35.561Z,6.50
2022-09-24T16:29:03.321Z,7.23
2022-09-24T16:31:30.572Z,7.43
2022-09-24T16:33:57.377Z,6.87
2022-09-24T16:36:24.506Z,6.47
2022-09-24T16:38:51.535Z,7.47
2022-09-24T16:41:18.573Z,7.73
2022-09-24T16:43:45.273Z,7.03
2022-09-24T16:46:16.311Z,7.67
2022-09-24T16:48:49.566Z,7.47
2022-09-24T16:51:17.366Z,7.40
2022-09-24T16:53:48.567Z,7.13
2022-09-24T16:56:17.351Z,7.50
2022-09-24T16:58:46.303Z,7.60
2022-09-24T17:01:15.823Z,7.60
2022-09-24T17:03:43.425Z,7.60
2022-09-24T17:06:21.412Z,7.80
2022-09-24T17:09:07.188Z,8.40
2022-09-24T17:11:34.335Z,9.47
2022-09-24T17:14:01.457Z,8.33
2022-09-24T17:16:28.782Z,7.90
2022-09-24T17:18:55.998Z,8.53
2022-09-24T17:21:23.250Z,7.63
2022-09-24T17:23:50.844Z,7.97
2022-09-24T17:26:19.658Z,8.83
2022-09-24T17:28:47.899Z,8.77
2022-09-24T17:31:17.255Z,8.70
2022-09-24T17:33:45.295Z,8.70
2022-09-24T17:36:13.986Z,8.47
2022-09-24T17:38:41.383Z,8.80
2022-09-24T17:41:10.527Z,8.23
2022-09-24T17:43:37.822Z,9.37
2022-09-24T17:46:22.480Z,8.57
2022-09-24T17:48:52.226Z,8.63
2022-09-24T17:51:24.420Z,9.03
2022-09-24T17:53:53.805Z,9.00
2022-09-24T17:56:23.166Z,10.13
2022-09-24T17:58:50.349Z,9.50
2022-09-24T18:01:20.125Z,8.70
2022-09-24T18:03:48.724Z,9.57
2022-09-24T18:06:15.931Z,9.67
2022-09-24T18:08:44.865Z,10.13
2022-09-24T18:11:17.262Z,10.00
2022-09-24T18:13:44.697Z,9.63
2022-09-24T18:16:16.737Z,10.23
2022-09-24T18:18:44.306Z,9.47
2022-09-24T18:21:13.590Z,10.53
2022-09-24T18:23:40.842Z,9.70
2022-09-24T18:26:15.975Z,8.80
2022-09-24T18:28:47.431Z,9.57
2022-09-24T18:31:14.958Z,9.70
2022-09-24T18:33:43.585Z,9.13
2022-09-24T18:36:13.918Z,9.27
2022-09-24T18:38:41.022Z,10.10
2022-09-24T18:41:11.035Z,10.37
2022-09-24T18:43:37.863Z,9.57
2022-09-24T18:46:06.554Z,10.43
2022-09-24T18:48:33.883Z,9.87
2022-09-24T18:51:00.809Z,10.93
2022-09-24T18:53:31.347Z,11.37
2022-09-24T18:56:03.335Z,9.87
2022-09-24T18:58:30.416Z,10.40
2022-09-24T19:01:05.325Z,10.43
2022-09-24T19:03:32.345Z,11.27
2022-09-24T19:06:04.773Z,11.33
2022-09-24T19:08:32.231Z,10.60
2022-09-24T19:11:07.563Z,11.70
2022-09-24T19:13:36.410Z,10.33
2022-09-24T19:16:08.399Z,11.00
2022-09-24T19:18:36.128Z,11.40
2022-09-24T19:21:06.515Z,10.57
2022-09-24T19:23:41.156Z,10.63
2022-09-24T19:26:09.637Z,10.80
2022-09-24T19:28:38.860Z,11.57
2022-09-24T19:31:06.270Z,11.10
2022-09-24T19:33:33.599Z,11.63
2022-09-24T19:36:02.825Z,12.00
2022-09-24T19:38:32.301Z,11.60
2022-09-24T19:41:07.396Z,13.47
2022-09-24T19:43:34.559Z,11.50
2022-09-24T19:46:09.960Z,16.00
2022-09-24T19:48:38.736Z,13.83
2022-09-24T19:51:09.030Z,17.63
2022-09-24T19:53:37.003Z,20.60
2022-09-24T19:56:08.719Z,20.13
2022-09-24T19:58:35.396Z,22.33
2022-09-24T20:01:03.873Z,22.43
2022-09-24T20:03:35.283Z,26.00
2022-09-24T20:06:11.657Z,26.23
2022-09-24T20:08:39.356Z,27.00
2022-09-24T20:11:08.697Z,25.83
2022-09-24T20:13:35.739Z,27.27
2022-09-24T20:16:04.300Z,26.77
2022-09-24T20:18:32.932Z,28.33
2022-09-24T20:21:03.743Z,29.00
2022-09-24T20:23:30.800Z,30.73
2022-09-24T20:26:16.207Z,30.90
2022-09-24T20:28:43.119Z,28.47
2022-09-24T20:31:14.924Z,24.53
2022-09-24T20:33:43.091Z,26.70
2022-09-24T20:36:15.889Z,24.30
2022-09-24T20:38:45.425Z,24.63
2022-09-24T20:41:17.993Z,26.23
2022-09-24T20:43:47.940Z,26.90
2022-09-24T20:46:24.264Z,26.30
2022-09-24T20:48:53.113Z,27.37
2022-09-24T20:51:21.297Z,27.30
2022-09-24T20:53:49.535Z,25.97
2022-09-24T20:56:17.749Z,27.77
2022-09-24T20:58:45.153Z,27.47
2022-09-24T21:01:12.003Z,26.90
2022-09-24T21:03:45.267Z,25.60
2022-09-24T21:06:14.784Z,27.27
2022-09-24T21:08:43.435Z,29.80
2022-09-24T21:11:12.379Z,29.27
2022-09-24T21:13:44.768Z,26.80
2022-09-24T21:16:12.269Z,23.80
2022-09-24T21:18:44.319Z,21.07
2022-09-24T21:21:17.369Z,21.33
2022-09-24T21:23:45.950Z,22.20
2022-09-24T21:26:19.613Z,21.53
2022-09-24T21:28:47.988Z,20.43
2022-09-24T21:31:16.911Z,19.83
2022-09-24T21:33:48.255Z,18.40
2022-09-24T21:36:19.372Z,17.40
2022-09-24T21:38:53.962Z,17.20
2022-09-24T21:41:35.445Z,17.57
2022-09-24T21:44:03.133Z,16.70
2022-09-24T21:46:32.874Z,16.97
2022-09-24T21:49:01.127Z,16.70
2022-09-24T21:51:30.068Z,18.37
2022-09-24T21:54:02.310Z,18.57
2022-09-24T21:56:31.191Z,19.13
2022-09-24T21:58:58.493Z,19.77
2022-09-24T22:01:28.090Z,20.40
2022-09-24T22:04:00.042Z,18.90
2022-09-24T22:06:29.146Z,20.50
2022-09-24T22:08:57.909Z,18.40
2022-09-24T22:11:28.437Z,17.60
2022-09-24T22:16:41.764Z,17.70
2022-09-24T22:19:09.339Z,17.30
2022-09-24T22:21:36.631Z,16.20
2022-09-24T22:24:04.005Z,17.57
2022-09-24T22:26:30.851Z,18.10
2022-09-24T22:28:58.398Z,17.13
2022-09-24T22:31:26.032Z,16.57
2022-09-24T22:34:11.953Z,16.20
2022-09-24T22:36:38.739Z,17.07
2022-09-24T22:39:07.039Z,17.60
2022-09-24T22:41:38.453Z,17.57
2022-09-24T22:44:05.693Z,17.67
2022-09-24T22:46:34.005Z,16.83
2022-09-24T22:49:01.411Z,17.30
2022-09-24T22:51:28.445Z,16.97
2022-09-24T22:53:56.846Z,18.17
2022-09-24T22:56:25.477Z,17.50
2022-09-24T22:59:02.960Z,16.33
2022-09-24T23:01:38.530Z,17.40
2022-09-24T23:04:06.026Z,17.10
2022-09-24T23:06:34.593Z,19.47
2022-09-24T23:09:01.853Z,19.20
2022-09-24T23:11:30.673Z,18.83
2022-09-24T23:14:03.205Z,21.20
2022-09-24T23:16:32.268Z,21.13
2022-09-24T23:19:04.244Z,19.13
2022-09-24T23:21:31.741Z,19.77
2022-09-24T23:24:01.162Z,18.90
2022-09-24T23:26:28.823Z,17.80
2022-09-24T23:28:56.978Z,19.40
2022-09-24T23:31:27.254Z,19.47
2022-09-24T23:33:56.296Z,17.77
2022-09-24T23:36:24.336Z,19.77
2022-09-24T23:38:51.289Z,19.60
2022-09-24T23:41:17.987Z,19.90
2022-09-24T23:43:46.100Z,19.97
2022-09-24T23:46:13.659Z,19.17
2022-09-24T23:48:40.554Z,19.27
2022-09-24T23:51:08.467Z,19.73
2022-09-24T23:53:35.945Z,19.80
2022-09-24T23:56:04.068Z,18.43
2022-09-24T23:58:31.342Z,17.47
